Gibsonia, Florida
Current Conditions -  °F | °C
As of 10:55 PM on Tuesday 25 Nov 2014 (Local Time) from KLAL Reporting Station
Thunderstorm Thunderstorm  
Wind Chill: 70°   Ceiling: 1300
Heat Index: 70°   Visibility: 10mi
Dew Point: 70°   Wind: 5mph
Humidity: 100%   Direction: 130°SE
Pressure: 29.89"   Gusts: NA
Location:  28.088°N, 81.941°W
Report Text: KLAL 260355Z AUTO 13004KT 10SM -TSRA BKN013 OVC019 21/21 A2989 RMK AO2 LTG DSNT E THRU S
Loading
Personal Weather Stations






























Interactive Weather Map New forecast layout! Learn more

10-Day Weather Forecast

Advertisements
Track Severe Weather on mobile